Carl Junction, MO

3:23 AM CST on February 12, 2016 (GMT -0600)
Joplin Regional | | Change Station
CLOSE
Current Station
Airport
Location: Joplin,
Elevation: 981 ft
Nearby Weather Stations

Elev 981 ft 37.15 °N, 94.50 °W | Updated 30 minutes ago

Clear
Clear
30 °F
Feels Like 26 °F
N
4
Wind Variable Wind from SSW

Today
High -- | Low -- °F
--% Chance of Precip.
Yesterday
High -- | Low -- °F
Precip. -- in
Pressure 30.18 in
Visibility 10.0 miles
Clouds Clear
Windchill 26 °F
Dew Point 23 °F
Humidity 75%
Rainfall 0.00 in
Snow Depth Not available.
7:10 AM 5:54 PM
Waxing Crescent, 19% visible
METAR KJLN 120853Z AUTO 20003KT 10SM CLR M01/M05 A3016 RMK AO2 SLP219 T10111050 55010 TSNO
Pressure 30.18 in
Visibility 10.0 miles
Clouds Clear
Windchill 26 °F
Dew Point 23 °F
Humidity 75%
Rainfall 0.00 in
Snow Depth Not available.
7:10 AM 5:54 PM
Waxing Crescent, 19% visible
METAR KJLN 120853Z AUTO 20003KT 10SM CLR M01/M05 A3016 RMK AO2 SLP219 T10111050 55010 TSNO

10-Day Weather Forecast

Almanac

Astronomy

Feb. 12, 2016 Rise Set
Actual Time
Civil Twilight
Nautical Twilight
Astronomical Twilight
Moon
Length of Visible Light
Length of Day
Tomorrow will be .
, % of the Moon is Illuminated

Today's Extremes

State Highs State Lows

Community

WunderPhotos

Upload Photos

1,892,286 photos uploaded!

WunderBlog® & News

Nearby

Air Quality

  Air Quality AQ Index Pollutant
Not available.

Snow Depth

Station Depth Elevation

Earthquake Activity

City Distance Mag. Time & Date
Minimum magnitude displayed is 2.5.

Coastal Water Temperatures

Place Temperature

Stations

Nearby Weather Stations

Station Location Temp. Windchill Dew Point Humidity Wind Precip. Elev Updated Type
                   

Watches & Warnings

There are currently no watches in effect.